sensor_id;sensor_type;location;lat;lon;timestamp;P1;durP1;ratioP1;P2;durP2;ratioP2
39314;SDS011;28703;44.412;11.918;2024-01-06T00:01:38;14.90;;;9.73;;
39314;SDS011;28703;44.412;11.918;2024-01-06T00:04:04;15.10;;;11.07;;
39314;SDS011;28703;44.412;11.918;2024-01-06T00:06:30;16.73;;;12.43;;
39314;SDS011;28703;44.412;11.918;2024-01-06T00:08:56;21.50;;;13.55;;
39314;SDS011;28703;44.412;11.918;2024-01-06T00:11:21;19.42;;;14.10;;
39314;SDS011;28703;44.412;11.918;2024-01-06T00:13:48;17.08;;;13.52;;
39314;SDS011;28703;44.412;11.918;2024-01-06T00:16:16;21.60;;;15.18;;
39314;SDS011;28703;44.412;11.918;2024-01-06T00:18:44;19.15;;;14.18;;
39314;SDS011;28703;44.412;11.918;2024-01-06T00:21:10;17.77;;;13.27;;
39314;SDS011;28703;44.412;11.918;2024-01-06T00:23:36;23.48;;;17.05;;
39314;SDS011;28703;44.412;11.918;2024-01-06T00:26:02;39.10;;;26.17;;
39314;SDS011;28703;44.412;11.918;2024-01-06T00:28:28;52.03;;;33.47;;
39314;SDS011;28703;44.412;11.918;2024-01-06T00:30:54;63.78;;;38.78;;
39314;SDS011;28703;44.412;11.918;2024-01-06T00:33:20;53.38;;;38.08;;
39314;SDS011;28703;44.412;11.918;2024-01-06T00:35:46;51.42;;;38.03;;
39314;SDS011;28703;44.412;11.918;2024-01-06T00:38:12;54.97;;;38.47;;
39314;SDS011;28703;44.412;11.918;2024-01-06T00:40:38;56.38;;;38.05;;
39314;SDS011;28703;44.412;11.918;2024-01-06T00:43:04;55.08;;;39.42;;
39314;SDS011;28703;44.412;11.918;2024-01-06T00:45:30;48.67;;;37.20;;
39314;SDS011;28703;44.412;11.918;2024-01-06T00:47:56;46.20;;;35.90;;
39314;SDS011;28703;44.412;11.918;2024-01-06T00:50:22;45.72;;;34.42;;
39314;SDS011;28703;44.412;11.918;2024-01-06T00:52:48;39.70;;;31.73;;
39314;SDS011;28703;44.412;11.918;2024-01-06T00:55:18;40.38;;;31.35;;
39314;SDS011;28703;44.412;11.918;2024-01-06T00:57:47;31.15;;;27.45;;
39314;SDS011;28703;44.412;11.918;2024-01-06T01:00:13;30.50;;;25.08;;
39314;SDS011;28703;44.412;11.918;2024-01-06T01:02:39;25.35;;;22.65;;
39314;SDS011;28703;44.412;11.918;2024-01-06T01:05:05;21.90;;;19.42;;
39314;SDS011;28703;44.412;11.918;2024-01-06T01:07:33;20.48;;;18.33;;
39314;SDS011;28703;44.412;11.918;2024-01-06T01:09:59;19.60;;;17.52;;
39314;SDS011;28703;44.412;11.918;2024-01-06T01:12:25;18.02;;;16.23;;
39314;SDS011;28703;44.412;11.918;2024-01-06T01:14:51;18.38;;;16.58;;
39314;SDS011;28703;44.412;11.918;2024-01-06T01:17:17;18.73;;;16.00;;
39314;SDS011;28703;44.412;11.918;2024-01-06T01:19:43;17.73;;;16.02;;
39314;SDS011;28703;44.412;11.918;2024-01-06T01:22:09;17.42;;;14.32;;
39314;SDS011;28703;44.412;11.918;2024-01-06T01:24:35;15.68;;;14.18;;
39314;SDS011;28703;44.412;11.918;2024-01-06T01:27:01;15.95;;;14.35;;
39314;SDS011;28703;44.412;11.918;2024-01-06T01:29:28;15.48;;;13.88;;
39314;SDS011;28703;44.412;11.918;2024-01-06T01:31:53;16.75;;;14.52;;
39314;SDS011;28703;44.412;11.918;2024-01-06T01:34:19;15.88;;;14.20;;
39314;SDS011;28703;44.412;11.918;2024-01-06T01:36:45;15.80;;;14.20;;
39314;SDS011;28703;44.412;11.918;2024-01-06T01:39:11;15.10;;;13.68;;
39314;SDS011;28703;44.412;11.918;2024-01-06T01:41:37;16.10;;;14.40;;
39314;SDS011;28703;44.412;11.918;2024-01-06T01:44:02;15.55;;;14.05;;
39314;SDS011;28703;44.412;11.918;2024-01-06T01:46:29;14.13;;;12.73;;
39314;SDS011;28703;44.412;11.918;2024-01-06T01:48:55;14.30;;;12.95;;
39314;SDS011;28703;44.412;11.918;2024-01-06T01:51:22;12.90;;;11.70;;
39314;SDS011;28703;44.412;11.918;2024-01-06T01:53:51;13.57;;;12.38;;
39314;SDS011;28703;44.412;11.918;2024-01-06T01:56:17;13.07;;;11.88;;
39314;SDS011;28703;44.412;11.918;2024-01-06T01:58:45;13.70;;;12.32;;
39314;SDS011;28703;44.412;11.918;2024-01-06T02:01:12;12.93;;;11.73;;
39314;SDS011;28703;44.412;11.918;2024-01-06T02:03:40;13.25;;;11.90;;
39314;SDS011;28703;44.412;11.918;2024-01-06T02:06:08;13.65;;;12.45;;
39314;SDS011;28703;44.412;11.918;2024-01-06T02:08:35;13.82;;;12.05;;
39314;SDS011;28703;44.412;11.918;2024-01-06T02:11:00;13.40;;;12.05;;
39314;SDS011;28703;44.412;11.918;2024-01-06T02:13:36;14.48;;;13.18;;
39314;SDS011;28703;44.412;11.918;2024-01-06T02:16:03;13.35;;;12.25;;
39314;SDS011;28703;44.412;11.918;2024-01-06T02:18:30;13.02;;;11.77;;
39314;SDS011;28703;44.412;11.918;2024-01-06T02:20:57;13.98;;;12.68;;
39314;SDS011;28703;44.412;11.918;2024-01-06T02:23:28;12.98;;;11.77;;
39314;SDS011;28703;44.412;11.918;2024-01-06T02:25:54;12.95;;;11.75;;
39314;SDS011;28703;44.412;11.918;2024-01-06T02:28:20;12.40;;;11.40;;
39314;SDS011;28703;44.412;11.918;2024-01-06T02:30:46;13.65;;;12.32;;
39314;SDS011;28703;44.412;11.918;2024-01-06T02:33:12;13.75;;;12.45;;
39314;SDS011;28703;44.412;11.918;2024-01-06T02:35:38;13.27;;;12.07;;
39314;SDS011;28703;44.412;11.918;2024-01-06T02:38:05;12.60;;;11.40;;
39314;SDS011;28703;44.412;11.918;2024-01-06T02:40:31;13.60;;;12.40;;
39314;SDS011;28703;44.412;11.918;2024-01-06T02:42:59;13.80;;;12.43;;
39314;SDS011;28703;44.412;11.918;2024-01-06T02:45:24;14.27;;;12.93;;
39314;SDS011;28703;44.412;11.918;2024-01-06T02:47:50;14.10;;;12.80;;
39314;SDS011;28703;44.412;11.918;2024-01-06T02:50:16;13.40;;;12.20;;
39314;SDS011;28703;44.412;11.918;2024-01-06T02:52:43;14.73;;;13.23;;
39314;SDS011;28703;44.412;11.918;2024-01-06T02:55:10;14.43;;;13.02;;
39314;SDS011;28703;44.412;11.918;2024-01-06T02:57:37;15.50;;;14.00;;
39314;SDS011;28703;44.412;11.918;2024-01-06T03:00:03;14.77;;;13.35;;
39314;SDS011;28703;44.412;11.918;2024-01-06T03:02:29;15.27;;;13.43;;
39314;SDS011;28703;44.412;11.918;2024-01-06T03:04:58;15.23;;;13.63;;
39314;SDS011;28703;44.412;11.918;2024-01-06T03:07:23;16.02;;;14.48;;
39314;SDS011;28703;44.412;11.918;2024-01-06T03:09:49;15.63;;;14.10;;
39314;SDS011;28703;44.412;11.918;2024-01-06T03:12:15;16.70;;;15.10;;
39314;SDS011;28703;44.412;11.918;2024-01-06T03:14:41;17.38;;;15.65;;
39314;SDS011;28703;44.412;11.918;2024-01-06T03:17:07;16.90;;;15.10;;
39314;SDS011;28703;44.412;11.918;2024-01-06T03:19:36;17.17;;;15.20;;
39314;SDS011;28703;44.412;11.918;2024-01-06T03:22:02;19.38;;;15.02;;
39314;SDS011;28703;44.412;11.918;2024-01-06T03:24:27;17.95;;;15.85;;
39314;SDS011;28703;44.412;11.918;2024-01-06T03:26:53;18.55;;;16.05;;
39314;SDS011;28703;44.412;11.918;2024-01-06T03:29:19;19.52;;;16.02;;
39314;SDS011;28703;44.412;11.918;2024-01-06T03:31:45;18.83;;;15.20;;
39314;SDS011;28703;44.412;11.918;2024-01-06T03:34:11;17.67;;;15.57;;
39314;SDS011;28703;44.412;11.918;2024-01-06T03:36:37;17.90;;;15.75;;
39314;SDS011;28703;44.412;11.918;2024-01-06T03:39:03;20.00;;;16.92;;
39314;SDS011;28703;44.412;11.918;2024-01-06T03:41:29;22.25;;;16.25;;
39314;SDS011;28703;44.412;11.918;2024-01-06T03:43:55;20.75;;;16.95;;
39314;SDS011;28703;44.412;11.918;2024-01-06T03:46:22;22.17;;;16.83;;
39314;SDS011;28703;44.412;11.918;2024-01-06T03:48:48;20.80;;;16.75;;
39314;SDS011;28703;44.412;11.918;2024-01-06T03:51:14;18.83;;;15.30;;
39314;SDS011;28703;44.412;11.918;2024-01-06T03:53:40;21.92;;;16.13;;
39314;SDS011;28703;44.412;11.918;2024-01-06T03:56:06;21.65;;;15.93;;
39314;SDS011;28703;44.412;11.918;2024-01-06T03:58:32;23.30;;;16.25;;
39314;SDS011;28703;44.412;11.918;2024-01-06T04:00:58;22.70;;;16.60;;
39314;SDS011;28703;44.412;11.918;2024-01-06T04:03:24;21.88;;;15.65;;
39314;SDS011;28703;44.412;11.918;2024-01-06T04:05:49;21.30;;;15.43;;
39314;SDS011;28703;44.412;11.918;2024-01-06T04:08:15;25.17;;;17.15;;
39314;SDS011;28703;44.412;11.918;2024-01-06T04:10:42;26.60;;;17.08;;
39314;SDS011;28703;44.412;11.918;2024-01-06T04:13:08;23.15;;;15.52;;
39314;SDS011;28703;44.412;11.918;2024-01-06T04:15:35;23.33;;;15.55;;
39314;SDS011;28703;44.412;11.918;2024-01-06T04:18:01;21.98;;;15.48;;
39314;SDS011;28703;44.412;11.918;2024-01-06T04:20:29;23.35;;;16.20;;
39314;SDS011;28703;44.412;11.918;2024-01-06T04:22:55;25.83;;;16.65;;
39314;SDS011;28703;44.412;11.918;2024-01-06T04:25:21;24.17;;;16.58;;
39314;SDS011;28703;44.412;11.918;2024-01-06T04:27:47;21.88;;;15.35;;
39314;SDS011;28703;44.412;11.918;2024-01-06T04:30:14;25.88;;;17.08;;
39314;SDS011;28703;44.412;11.918;2024-01-06T04:32:40;24.83;;;16.38;;
39314;SDS011;28703;44.412;11.918;2024-01-06T04:35:07;28.08;;;17.17;;
39314;SDS011;28703;44.412;11.918;2024-01-06T04:37:33;28.52;;;16.63;;
39314;SDS011;28703;44.412;11.918;2024-01-06T04:39:58;26.63;;;15.75;;
39314;SDS011;28703;44.412;11.918;2024-01-06T04:42:24;29.48;;;17.15;;
39314;SDS011;28703;44.412;11.918;2024-01-06T04:44:50;25.90;;;16.95;;
39314;SDS011;28703;44.412;11.918;2024-01-06T04:47:16;28.10;;;16.90;;
39314;SDS011;28703;44.412;11.918;2024-01-06T04:49:43;25.92;;;15.65;;
39314;SDS011;28703;44.412;11.918;2024-01-06T04:52:09;28.02;;;16.95;;
39314;SDS011;28703;44.412;11.918;2024-01-06T04:54:35;30.85;;;16.35;;
39314;SDS011;28703;44.412;11.918;2024-01-06T04:57:01;29.83;;;16.35;;
39314;SDS011;28703;44.412;11.918;2024-01-06T04:59:27;29.33;;;16.00;;
39314;SDS011;28703;44.412;11.918;2024-01-06T05:01:53;26.33;;;15.75;;
39314;SDS011;28703;44.412;11.918;2024-01-06T05:04:19;30.27;;;15.65;;
39314;SDS011;28703;44.412;11.918;2024-01-06T05:06:45;25.60;;;15.43;;
39314;SDS011;28703;44.412;11.918;2024-01-06T05:09:11;29.13;;;16.05;;
39314;SDS011;28703;44.412;11.918;2024-01-06T05:11:36;24.90;;;16.02;;
39314;SDS011;28703;44.412;11.918;2024-01-06T05:14:02;29.50;;;16.85;;
39314;SDS011;28703;44.412;11.918;2024-01-06T05:16:28;27.75;;;16.38;;
39314;SDS011;28703;44.412;11.918;2024-01-06T05:18:54;23.70;;;15.40;;
39314;SDS011;28703;44.412;11.918;2024-01-06T05:21:20;26.85;;;15.80;;
39314;SDS011;28703;44.412;11.918;2024-01-06T05:23:46;22.48;;;14.07;;
39314;SDS011;28703;44.412;11.918;2024-01-06T05:26:11;24.05;;;14.70;;
39314;SDS011;28703;44.412;11.918;2024-01-06T05:28:39;21.60;;;14.32;;
39314;SDS011;28703;44.412;11.918;2024-01-06T05:31:05;23.88;;;14.75;;
39314;SDS011;28703;44.412;11.918;2024-01-06T05:33:31;17.88;;;12.73;;
39314;SDS011;28703;44.412;11.918;2024-01-06T05:35:57;17.60;;;12.35;;
39314;SDS011;28703;44.412;11.918;2024-01-06T05:38:23;18.38;;;12.25;;
39314;SDS011;28703;44.412;11.918;2024-01-06T05:40:48;15.88;;;12.68;;
39314;SDS011;28703;44.412;11.918;2024-01-06T05:43:14;15.95;;;12.07;;
39314;SDS011;28703;44.412;11.918;2024-01-06T05:45:40;15.88;;;12.13;;
39314;SDS011;28703;44.412;11.918;2024-01-06T05:48:09;13.70;;;11.07;;
39314;SDS011;28703;44.412;11.918;2024-01-06T05:50:35;14.80;;;11.73;;
39314;SDS011;28703;44.412;11.918;2024-01-06T05:53:07;11.38;;;10.15;;
39314;SDS011;28703;44.412;11.918;2024-01-06T05:55:33;12.50;;;10.80;;
39314;SDS011;28703;44.412;11.918;2024-01-06T05:57:59;10.98;;;9.80;;
39314;SDS011;28703;44.412;11.918;2024-01-06T06:00:26;10.60;;;9.57;;
39314;SDS011;28703;44.412;11.918;2024-01-06T06:02:52;10.07;;;9.07;;
39314;SDS011;28703;44.412;11.918;2024-01-06T06:05:18;10.43;;;9.43;;
39314;SDS011;28703;44.412;11.918;2024-01-06T06:07:45;9.13;;;8.23;;
39314;SDS011;28703;44.412;11.918;2024-01-06T06:10:11;9.50;;;8.63;;
39314;SDS011;28703;44.412;11.918;2024-01-06T06:12:37;9.80;;;8.88;;
39314;SDS011;28703;44.412;11.918;2024-01-06T06:15:04;10.07;;;9.02;;
39314;SDS011;28703;44.412;11.918;2024-01-06T06:17:31;8.93;;;8.00;;
39314;SDS011;28703;44.412;11.918;2024-01-06T06:19:57;9.07;;;8.18;;
39314;SDS011;28703;44.412;11.918;2024-01-06T06:22:24;10.73;;;8.57;;
39314;SDS011;28703;44.412;11.918;2024-01-06T06:27:24;10.30;;;9.27;;
39314;SDS011;28703;44.412;11.918;2024-01-06T06:29:50;11.32;;;9.30;;
39314;SDS011;28703;44.412;11.918;2024-01-06T06:32:16;11.23;;;8.20;;
39314;SDS011;28703;44.412;11.918;2024-01-06T06:34:42;10.27;;;9.02;;
39314;SDS011;28703;44.412;11.918;2024-01-06T06:37:08;8.60;;;7.63;;
39314;SDS011;28703;44.412;11.918;2024-01-06T06:39:33;8.30;;;7.53;;
39314;SDS011;28703;44.412;11.918;2024-01-06T06:42:00;8.65;;;7.65;;
39314;SDS011;28703;44.412;11.918;2024-01-06T06:44:27;9.63;;;7.68;;
39314;SDS011;28703;44.412;11.918;2024-01-06T06:46:54;8.98;;;8.10;;
39314;SDS011;28703;44.412;11.918;2024-01-06T06:49:20;8.32;;;7.50;;
39314;SDS011;28703;44.412;11.918;2024-01-06T06:51:46;7.60;;;7.03;;
39314;SDS011;28703;44.412;11.918;2024-01-06T06:54:16;8.13;;;7.43;;
39314;SDS011;28703;44.412;11.918;2024-01-06T06:56:42;7.80;;;7.10;;
39314;SDS011;28703;44.412;11.918;2024-01-06T06:59:08;8.13;;;7.35;;
39314;SDS011;28703;44.412;11.918;2024-01-06T07:01:34;8.35;;;7.65;;
39314;SDS011;28703;44.412;11.918;2024-01-06T07:04:01;8.32;;;7.68;;
39314;SDS011;28703;44.412;11.918;2024-01-06T07:06:27;8.32;;;7.70;;
39314;SDS011;28703;44.412;11.918;2024-01-06T07:08:54;8.55;;;7.40;;
39314;SDS011;28703;44.412;11.918;2024-01-06T07:11:20;8.10;;;7.50;;
39314;SDS011;28703;44.412;11.918;2024-01-06T07:13:46;7.80;;;7.30;;
39314;SDS011;28703;44.412;11.918;2024-01-06T07:16:12;8.48;;;7.78;;
39314;SDS011;28703;44.412;11.918;2024-01-06T07:18:38;8.05;;;7.40;;
39314;SDS011;28703;44.412;11.918;2024-01-06T07:21:04;9.07;;;8.15;;
39314;SDS011;28703;44.412;11.918;2024-01-06T07:23:31;9.10;;;8.30;;
39314;SDS011;28703;44.412;11.918;2024-01-06T07:25:58;8.93;;;8.13;;
39314;SDS011;28703;44.412;11.918;2024-01-06T07:28:24;9.23;;;8.35;;
39314;SDS011;28703;44.412;11.918;2024-01-06T07:30:50;8.35;;;7.75;;
39314;SDS011;28703;44.412;11.918;2024-01-06T07:33:16;8.70;;;8.00;;
39314;SDS011;28703;44.412;11.918;2024-01-06T07:35:42;8.52;;;7.82;;
39314;SDS011;28703;44.412;11.918;2024-01-06T07:38:09;8.10;;;7.50;;
39314;SDS011;28703;44.412;11.918;2024-01-06T07:40:38;8.88;;;7.97;;
39314;SDS011;28703;44.412;11.918;2024-01-06T07:43:04;8.98;;;8.18;;
39314;SDS011;28703;44.412;11.918;2024-01-06T07:45:32;9.20;;;8.40;;
39314;SDS011;28703;44.412;11.918;2024-01-06T07:47:58;8.55;;;7.85;;
39314;SDS011;28703;44.412;11.918;2024-01-06T07:50:24;8.88;;;8.15;;
39314;SDS011;28703;44.412;11.918;2024-01-06T07:52:51;8.80;;;8.10;;
39314;SDS011;28703;44.412;11.918;2024-01-06T07:55:17;9.63;;;8.85;;
39314;SDS011;28703;44.412;11.918;2024-01-06T07:57:43;8.55;;;7.75;;
39314;SDS011;28703;44.412;11.918;2024-01-06T08:00:09;8.90;;;8.10;;
39314;SDS011;28703;44.412;11.918;2024-01-06T08:02:39;9.30;;;8.50;;
39314;SDS011;28703;44.412;11.918;2024-01-06T08:05:06;11.02;;;9.20;;
39314;SDS011;28703;44.412;11.918;2024-01-06T08:07:32;8.85;;;8.15;;
39314;SDS011;28703;44.412;11.918;2024-01-06T08:09:58;8.95;;;8.15;;
39314;SDS011;28703;44.412;11.918;2024-01-06T08:12:24;9.73;;;8.73;;
39314;SDS011;28703;44.412;11.918;2024-01-06T08:14:50;9.00;;;8.30;;
39314;SDS011;28703;44.412;11.918;2024-01-06T08:17:16;8.82;;;8.13;;
39314;SDS011;28703;44.412;11.918;2024-01-06T08:19:42;8.70;;;7.90;;
39314;SDS011;28703;44.412;11.918;2024-01-06T08:22:08;8.93;;;8.13;;
39314;SDS011;28703;44.412;11.918;2024-01-06T08:24:33;8.88;;;8.07;;
39314;SDS011;28703;44.412;11.918;2024-01-06T08:26:59;9.07;;;8.38;;
39314;SDS011;28703;44.412;11.918;2024-01-06T08:29:25;9.00;;;8.13;;
39314;SDS011;28703;44.412;11.918;2024-01-06T08:31:51;10.18;;;8.88;;
39314;SDS011;28703;44.412;11.918;2024-01-06T08:34:17;9.95;;;8.95;;
39314;SDS011;28703;44.412;11.918;2024-01-06T08:36:43;10.40;;;9.15;;
39314;SDS011;28703;44.412;11.918;2024-01-06T08:39:09;10.43;;;9.40;;
39314;SDS011;28703;44.412;11.918;2024-01-06T08:41:36;10.25;;;9.25;;
39314;SDS011;28703;44.412;11.918;2024-01-06T08:44:02;14.43;;;9.45;;
39314;SDS011;28703;44.412;11.918;2024-01-06T08:46:28;10.10;;;9.20;;
39314;SDS011;28703;44.412;11.918;2024-01-06T08:48:53;11.35;;;9.98;;
39314;SDS011;28703;44.412;11.918;2024-01-06T08:51:19;22.23;;;10.15;;
39314;SDS011;28703;44.412;11.918;2024-01-06T08:53:46;9.93;;;9.02;;
39314;SDS011;28703;44.412;11.918;2024-01-06T08:56:12;10.13;;;9.20;;
39314;SDS011;28703;44.412;11.918;2024-01-06T08:58:37;10.20;;;9.20;;
39314;SDS011;28703;44.412;11.918;2024-01-06T09:01:03;10.63;;;9.48;;
39314;SDS011;28703;44.412;11.918;2024-01-06T09:03:29;10.15;;;9.25;;
39314;SDS011;28703;44.412;11.918;2024-01-06T09:05:55;9.85;;;8.95;;
39314;SDS011;28703;44.412;11.918;2024-01-06T09:08:22;12.13;;;9.70;;
39314;SDS011;28703;44.412;11.918;2024-01-06T09:10:49;9.68;;;8.77;;
39314;SDS011;28703;44.412;11.918;2024-01-06T09:13:19;84.95;;;71.53;;
39314;SDS011;28703;44.412;11.918;2024-01-06T09:15:47;40.70;;;28.48;;
39314;SDS011;28703;44.412;11.918;2024-01-06T09:18:12;15.82;;;13.15;;
39314;SDS011;28703;44.412;11.918;2024-01-06T09:20:38;11.27;;;10.18;;
39314;SDS011;28703;44.412;11.918;2024-01-06T09:23:04;10.20;;;9.20;;
39314;SDS011;28703;44.412;11.918;2024-01-06T09:25:30;9.55;;;8.55;;
39314;SDS011;28703;44.412;11.918;2024-01-06T09:27:56;9.30;;;8.30;;
39314;SDS011;28703;44.412;11.918;2024-01-06T09:30:21;9.02;;;8.20;;
39314;SDS011;28703;44.412;11.918;2024-01-06T09:32:47;10.13;;;8.50;;
39314;SDS011;28703;44.412;11.918;2024-01-06T09:35:13;8.82;;;8.00;;
39314;SDS011;28703;44.412;11.918;2024-01-06T09:37:39;12.80;;;11.18;;
39314;SDS011;28703;44.412;11.918;2024-01-06T09:40:06;9.75;;;8.77;;
39314;SDS011;28703;44.412;11.918;2024-01-06T09:42:36;8.43;;;7.63;;
39314;SDS011;28703;44.412;11.918;2024-01-06T09:45:01;10.13;;;9.10;;
39314;SDS011;28703;44.412;11.918;2024-01-06T09:47:28;9.45;;;8.45;;
39314;SDS011;28703;44.412;11.918;2024-01-06T09:49:59;9.03;;;8.10;;
39314;SDS011;28703;44.412;11.918;2024-01-06T09:52:26;9.55;;;8.55;;
39314;SDS011;28703;44.412;11.918;2024-01-06T09:54:53;9.05;;;8.25;;
39314;SDS011;28703;44.412;11.918;2024-01-06T09:57:20;8.10;;;7.40;;
39314;SDS011;28703;44.412;11.918;2024-01-06T09:59:46;9.18;;;8.30;;
39314;SDS011;28703;44.412;11.918;2024-01-06T10:02:14;9.30;;;8.43;;
39314;SDS011;28703;44.412;11.918;2024-01-06T10:04:41;9.45;;;8.43;;
39314;SDS011;28703;44.412;11.918;2024-01-06T10:07:07;9.55;;;8.68;;
39314;SDS011;28703;44.412;11.918;2024-01-06T10:09:33;9.70;;;8.70;;
39314;SDS011;28703;44.412;11.918;2024-01-06T10:11:59;10.48;;;8.70;;
39314;SDS011;28703;44.412;11.918;2024-01-06T10:14:25;8.68;;;7.95;;
39314;SDS011;28703;44.412;11.918;2024-01-06T10:16:52;9.80;;;8.90;;
39314;SDS011;28703;44.412;11.918;2024-01-06T10:19:18;9.52;;;8.63;;
39314;SDS011;28703;44.412;11.918;2024-01-06T10:21:44;9.60;;;8.70;;
39314;SDS011;28703;44.412;11.918;2024-01-06T10:24:10;9.60;;;8.70;;
39314;SDS011;28703;44.412;11.918;2024-01-06T10:26:36;9.90;;;9.00;;
39314;SDS011;28703;44.412;11.918;2024-01-06T10:29:02;10.25;;;9.25;;
39314;SDS011;28703;44.412;11.918;2024-01-06T10:31:29;10.25;;;9.18;;
39314;SDS011;28703;44.412;11.918;2024-01-06T10:33:55;10.45;;;9.45;;
39314;SDS011;28703;44.412;11.918;2024-01-06T10:36:24;10.05;;;9.05;;
39314;SDS011;28703;44.412;11.918;2024-01-06T10:38:52;11.57;;;9.23;;
39314;SDS011;28703;44.412;11.918;2024-01-06T10:41:18;11.02;;;10.02;;
39314;SDS011;28703;44.412;11.918;2024-01-06T10:43:45;11.38;;;10.23;;
39314;SDS011;28703;44.412;11.918;2024-01-06T10:46:13;10.95;;;9.85;;
39314;SDS011;28703;44.412;11.918;2024-01-06T10:48:41;11.00;;;10.05;;
39314;SDS011;28703;44.412;11.918;2024-01-06T10:51:11;10.85;;;9.73;;
39314;SDS011;28703;44.412;11.918;2024-01-06T10:53:41;10.50;;;9.48;;
39314;SDS011;28703;44.412;11.918;2024-01-06T10:56:08;11.93;;;10.65;;
39314;SDS011;28703;44.412;11.918;2024-01-06T10:58:36;12.20;;;10.05;;
39314;SDS011;28703;44.412;11.918;2024-01-06T11:01:11;11.77;;;10.55;;
39314;SDS011;28703;44.412;11.918;2024-01-06T11:03:37;10.57;;;9.68;;
39314;SDS011;28703;44.412;11.918;2024-01-06T11:06:05;11.13;;;10.00;;
39314;SDS011;28703;44.412;11.918;2024-01-06T11:08:33;12.95;;;11.60;;
39314;SDS011;28703;44.412;11.918;2024-01-06T11:11:04;12.55;;;10.38;;
39314;SDS011;28703;44.412;11.918;2024-01-06T11:13:30;13.10;;;11.80;;
39314;SDS011;28703;44.412;11.918;2024-01-06T11:15:56;11.57;;;10.38;;
39314;SDS011;28703;44.412;11.918;2024-01-06T11:18:35;12.68;;;11.38;;
39314;SDS011;28703;44.412;11.918;2024-01-06T11:24:04;15.00;;;11.65;;
39314;SDS011;28703;44.412;11.918;2024-01-06T11:26:44;11.57;;;10.38;;
39314;SDS011;28703;44.412;11.918;2024-01-06T11:29:14;13.68;;;11.95;;
39314;SDS011;28703;44.412;11.918;2024-01-06T11:31:40;19.02;;;15.93;;
39314;SDS011;28703;44.412;11.918;2024-01-06T11:34:18;16.88;;;12.40;;
39314;SDS011;28703;44.412;11.918;2024-01-06T11:36:50;17.38;;;15.35;;
39314;SDS011;28703;44.412;11.918;2024-01-06T11:39:33;14.85;;;13.23;;
39314;SDS011;28703;44.412;11.918;2024-01-06T11:42:00;14.18;;;12.73;;
39314;SDS011;28703;44.412;11.918;2024-01-06T11:44:27;12.55;;;11.35;;
39314;SDS011;28703;44.412;11.918;2024-01-06T11:46:57;12.00;;;10.82;;
39314;SDS011;28703;44.412;11.918;2024-01-06T11:49:26;11.18;;;10.15;;
39314;SDS011;28703;44.412;11.918;2024-01-06T11:51:56;12.13;;;10.93;;
39314;SDS011;28703;44.412;11.918;2024-01-06T11:54:22;12.82;;;11.57;;
39314;SDS011;28703;44.412;11.918;2024-01-06T11:56:48;13.65;;;11.32;;
39314;SDS011;28703;44.412;11.918;2024-01-06T11:59:14;12.80;;;11.00;;
39314;SDS011;28703;44.412;11.918;2024-01-06T12:01:40;10.68;;;9.77;;
39314;SDS011;28703;44.412;11.918;2024-01-06T12:04:06;11.23;;;9.95;;
39314;SDS011;28703;44.412;11.918;2024-01-06T12:06:32;10.90;;;9.80;;
39314;SDS011;28703;44.412;11.918;2024-01-06T12:11:35;9.27;;;8.48;;
39314;SDS011;28703;44.412;11.918;2024-01-06T12:14:02;9.95;;;8.98;;
39314;SDS011;28703;44.412;11.918;2024-01-06T12:16:28;9.18;;;8.43;;
39314;SDS011;28703;44.412;11.918;2024-01-06T12:18:55;9.75;;;8.48;;
39314;SDS011;28703;44.412;11.918;2024-01-06T12:21:23;8.75;;;8.05;;
39314;SDS011;28703;44.412;11.918;2024-01-06T12:23:49;9.00;;;8.20;;
39314;SDS011;28703;44.412;11.918;2024-01-06T12:26:16;9.25;;;8.45;;
39314;SDS011;28703;44.412;11.918;2024-01-06T12:28:46;9.02;;;8.23;;
39314;SDS011;28703;44.412;11.918;2024-01-06T12:31:12;8.88;;;8.07;;
39314;SDS011;28703;44.412;11.918;2024-01-06T12:33:39;7.88;;;7.18;;
39314;SDS011;28703;44.412;11.918;2024-01-06T12:36:08;8.05;;;7.35;;
39314;SDS011;28703;44.412;11.918;2024-01-06T12:38:37;8.18;;;7.47;;
39314;SDS011;28703;44.412;11.918;2024-01-06T12:41:06;8.02;;;7.22;;
39314;SDS011;28703;44.412;11.918;2024-01-06T12:43:32;8.80;;;7.03;;
39314;SDS011;28703;44.412;11.918;2024-01-06T12:45:58;8.27;;;7.57;;
39314;SDS011;28703;44.412;11.918;2024-01-06T12:48:23;8.27;;;7.57;;
39314;SDS011;28703;44.412;11.918;2024-01-06T12:50:49;7.28;;;6.68;;
39314;SDS011;28703;44.412;11.918;2024-01-06T12:53:15;7.68;;;6.97;;
39314;SDS011;28703;44.412;11.918;2024-01-06T12:55:43;7.63;;;6.93;;
39314;SDS011;28703;44.412;11.918;2024-01-06T12:58:09;7.10;;;6.50;;
39314;SDS011;28703;44.412;11.918;2024-01-06T13:00:36;6.93;;;6.32;;
39314;SDS011;28703;44.412;11.918;2024-01-06T13:03:02;6.70;;;6.20;;
39314;SDS011;28703;44.412;11.918;2024-01-06T13:05:29;7.13;;;6.53;;
39314;SDS011;28703;44.412;11.918;2024-01-06T13:08:02;7.15;;;6.55;;
39314;SDS011;28703;44.412;11.918;2024-01-06T13:10:28;6.63;;;6.13;;
39314;SDS011;28703;44.412;11.918;2024-01-06T13:12:54;7.05;;;6.45;;
39314;SDS011;28703;44.412;11.918;2024-01-06T13:15:20;6.82;;;6.15;;
39314;SDS011;28703;44.412;11.918;2024-01-06T13:17:46;6.88;;;6.38;;
39314;SDS011;28703;44.412;11.918;2024-01-06T13:20:12;6.45;;;5.95;;
39314;SDS011;28703;44.412;11.918;2024-01-06T13:22:37;6.10;;;5.60;;
39314;SDS011;28703;44.412;11.918;2024-01-06T13:25:05;5.82;;;5.32;;
39314;SDS011;28703;44.412;11.918;2024-01-06T13:27:33;5.60;;;5.20;;
39314;SDS011;28703;44.412;11.918;2024-01-06T13:30:00;5.90;;;5.40;;
39314;SDS011;28703;44.412;11.918;2024-01-06T13:32:25;6.03;;;5.53;;
39314;SDS011;28703;44.412;11.918;2024-01-06T13:34:52;5.65;;;5.22;;
39314;SDS011;28703;44.412;11.918;2024-01-06T13:37:21;6.10;;;5.63;;
39314;SDS011;28703;44.412;11.918;2024-01-06T13:39:47;6.50;;;5.88;;
39314;SDS011;28703;44.412;11.918;2024-01-06T13:42:13;5.50;;;5.10;;
39314;SDS011;28703;44.412;11.918;2024-01-06T13:44:39;5.50;;;5.15;;
39314;SDS011;28703;44.412;11.918;2024-01-06T13:47:05;5.55;;;5.07;;
39314;SDS011;28703;44.412;11.918;2024-01-06T13:49:31;5.57;;;5.18;;
39314;SDS011;28703;44.412;11.918;2024-01-06T13:51:57;7.50;;;5.90;;
39314;SDS011;28703;44.412;11.918;2024-01-06T13:54:23;5.63;;;5.20;;
39314;SDS011;28703;44.412;11.918;2024-01-06T13:56:49;6.22;;;5.70;;
39314;SDS011;28703;44.412;11.918;2024-01-06T13:59:15;5.60;;;5.20;;
39314;SDS011;28703;44.412;11.918;2024-01-06T14:01:41;6.55;;;6.03;;
39314;SDS011;28703;44.412;11.918;2024-01-06T14:04:08;5.78;;;5.28;;
39314;SDS011;28703;44.412;11.918;2024-01-06T14:06:34;6.43;;;5.88;;
39314;SDS011;28703;44.412;11.918;2024-01-06T14:09:00;6.15;;;5.65;;
39314;SDS011;28703;44.412;11.918;2024-01-06T14:11:26;7.05;;;6.45;;
39314;SDS011;28703;44.412;11.918;2024-01-06T14:13:52;6.72;;;6.13;;
39314;SDS011;28703;44.412;11.918;2024-01-06T14:16:18;7.40;;;6.32;;
39314;SDS011;28703;44.412;11.918;2024-01-06T14:18:45;6.75;;;6.03;;
39314;SDS011;28703;44.412;11.918;2024-01-06T14:21:11;6.88;;;6.28;;
39314;SDS011;28703;44.412;11.918;2024-01-06T14:23:43;7.97;;;7.28;;
39314;SDS011;28703;44.412;11.918;2024-01-06T14:26:09;7.97;;;7.18;;